createdAt,value
2018-10-09T00:01:29.261Z,11.00
2018-10-09T00:03:33.733Z,11.00
2018-10-09T00:05:37.430Z,11.00
2018-10-09T00:07:41.174Z,11.00
2018-10-09T00:09:44.819Z,11.00
2018-10-09T00:11:48.472Z,11.00
2018-10-09T00:13:52.244Z,11.00
2018-10-09T00:15:55.916Z,10.90
2018-10-09T00:17:59.667Z,10.90
2018-10-09T00:20:03.432Z,10.90
2018-10-09T00:22:07.201Z,10.90
2018-10-09T00:24:11.015Z,10.80
2018-10-09T00:26:14.859Z,10.80
2018-10-09T00:28:18.502Z,10.80
2018-10-09T00:30:22.202Z,10.70
2018-10-09T00:32:25.930Z,10.70
2018-10-09T00:34:29.624Z,10.70
2018-10-09T00:36:33.387Z,10.60
2018-10-09T00:38:37.077Z,10.60
2018-10-09T00:40:40.754Z,10.60
2018-10-09T00:42:44.443Z,10.50
2018-10-09T00:44:48.188Z,10.50
2018-10-09T00:46:51.864Z,10.50
2018-10-09T00:48:55.557Z,10.50
2018-10-09T00:50:59.292Z,10.40
2018-10-09T00:53:02.954Z,10.40
2018-10-09T00:55:07.309Z,10.40
2018-10-09T00:57:11.051Z,10.40
2018-10-09T00:59:14.764Z,10.30
2018-10-09T01:01:18.467Z,10.30
2018-10-09T01:03:22.958Z,10.30
2018-10-09T01:05:26.681Z,10.20
2018-10-09T01:07:30.441Z,10.20
2018-10-09T01:09:34.889Z,10.20
2018-10-09T01:11:38.559Z,10.10
2018-10-09T01:13:42.259Z,10.10
2018-10-09T01:15:45.985Z,10.10
2018-10-09T01:17:49.640Z,10.10
2018-10-09T01:19:53.356Z,10.10
2018-10-09T01:21:57.084Z,10.10
2018-10-09T01:24:00.803Z,10.10
2018-10-09T01:26:04.512Z,10.00
2018-10-09T01:28:08.150Z,10.10
2018-10-09T01:30:12.539Z,10.00
2018-10-09T01:32:16.232Z,10.00
2018-10-09T01:34:19.895Z,10.00
2018-10-09T01:36:23.584Z,10.00
2018-10-09T01:38:27.228Z,10.00
2018-10-09T01:40:30.889Z,10.00
2018-10-09T01:42:34.576Z,10.00
2018-10-09T01:44:43.522Z,10.00
2018-10-09T01:46:47.298Z,9.90
2018-10-09T01:48:51.009Z,9.90
2018-10-09T01:50:54.748Z,9.90
2018-10-09T01:52:59.096Z,9.90
2018-10-09T01:55:03.332Z,9.80
2018-10-09T01:57:07.242Z,9.90
2018-10-09T01:59:10.891Z,9.80
2018-10-09T02:01:14.538Z,9.80
2018-10-09T02:03:18.540Z,9.80
2018-10-09T02:05:22.310Z,9.80
2018-10-09T02:07:26.788Z,9.70
2018-10-09T02:09:30.427Z,9.70
2018-10-09T02:11:34.120Z,9.70
2018-10-09T02:13:37.853Z,9.70
2018-10-09T02:15:41.612Z,9.70
2018-10-09T02:17:47.117Z,9.70
2018-10-09T02:19:50.811Z,9.70
2018-10-09T02:21:54.603Z,9.70
2018-10-09T02:23:58.817Z,9.60
2018-10-09T02:26:02.596Z,9.70
2018-10-09T02:28:06.305Z,9.60
2018-10-09T02:30:11.443Z,9.60
2018-10-09T02:32:15.273Z,9.60
2018-10-09T02:34:18.938Z,9.60
2018-10-09T02:36:23.074Z,9.60
2018-10-09T02:38:27.223Z,9.60
2018-10-09T02:40:30.969Z,9.50
2018-10-09T02:42:34.717Z,9.50
2018-10-09T02:44:40.102Z,9.50
2018-10-09T02:46:44.913Z,9.50
2018-10-09T02:48:48.691Z,9.50
2018-10-09T02:50:52.444Z,9.50
2018-10-09T02:52:56.185Z,9.40
2018-10-09T02:55:00.371Z,9.40
2018-10-09T02:57:04.078Z,9.40
2018-10-09T02:59:08.690Z,9.40
2018-10-09T03:01:12.507Z,9.40
2018-10-09T03:03:16.236Z,9.30
2018-10-09T03:05:21.175Z,9.30
2018-10-09T03:07:24.925Z,9.30
2018-10-09T03:09:29.595Z,9.30
2018-10-09T03:11:33.367Z,9.30
2018-10-09T03:13:40.014Z,9.20
2018-10-09T03:15:43.696Z,9.20
2018-10-09T03:17:47.552Z,9.20
2018-10-09T03:19:51.199Z,9.20
2018-10-09T03:21:54.969Z,9.20
2018-10-09T03:23:58.836Z,9.20
2018-10-09T03:26:02.543Z,9.20
2018-10-09T03:28:06.669Z,9.20
2018-10-09T03:30:11.753Z,9.20
2018-10-09T03:32:15.521Z,9.20
2018-10-09T03:34:19.197Z,9.20
2018-10-09T03:36:22.881Z,9.10
2018-10-09T03:38:31.072Z,9.10
2018-10-09T03:40:34.752Z,9.10
2018-10-09T03:42:38.465Z,9.10
2018-10-09T03:44:42.206Z,9.10
2018-10-09T03:46:47.539Z,9.00
2018-10-09T03:48:51.523Z,9.00
2018-10-09T03:50:59.093Z,9.00
2018-10-09T03:53:02.779Z,9.00
2018-10-09T03:55:07.809Z,9.00
2018-10-09T03:57:11.664Z,8.90
2018-10-09T03:59:15.332Z,8.90
2018-10-09T04:01:19.858Z,8.90
2018-10-09T04:03:23.611Z,8.90
2018-10-09T04:05:27.609Z,8.80
2018-10-09T04:07:31.364Z,8.80
2018-10-09T04:09:35.173Z,8.80
2018-10-09T04:11:38.952Z,8.70
2018-10-09T04:13:42.679Z,8.70
2018-10-09T04:15:46.544Z,8.70
2018-10-09T04:17:50.323Z,8.70
2018-10-09T04:19:54.253Z,8.70
2018-10-09T04:21:57.973Z,8.70
2018-10-09T04:24:01.756Z,8.60
2018-10-09T04:26:05.641Z,8.60
2018-10-09T04:28:09.485Z,8.60
2018-10-09T04:30:13.903Z,8.60
2018-10-09T04:32:17.753Z,8.60
2018-10-09T04:34:21.920Z,8.60
2018-10-09T04:36:25.729Z,8.50
2018-10-09T04:38:29.557Z,8.50
2018-10-09T04:40:33.339Z,8.50
2018-10-09T04:42:42.066Z,8.50
2018-10-09T04:44:45.803Z,8.50
2018-10-09T04:46:49.555Z,8.50
2018-10-09T04:48:53.724Z,8.50
2018-10-09T04:50:57.676Z,8.50
2018-10-09T04:53:01.537Z,8.40
2018-10-09T04:55:05.857Z,8.40
2018-10-09T04:57:10.601Z,8.40
2018-10-09T04:59:16.899Z,8.40
2018-10-09T05:01:20.698Z,8.40
2018-10-09T05:03:24.545Z,8.40
2018-10-09T05:05:29.126Z,8.40
2018-10-09T05:07:33.147Z,8.30
2018-10-09T05:09:36.987Z,8.30
2018-10-09T05:11:41.026Z,8.30
2018-10-09T05:13:45.322Z,8.30
2018-10-09T05:15:49.164Z,8.30
2018-10-09T05:17:52.931Z,8.30
2018-10-09T05:19:58.229Z,8.30
2018-10-09T05:22:01.975Z,8.20
2018-10-09T05:24:05.905Z,8.20
2018-10-09T05:26:09.839Z,8.20
2018-10-09T05:28:13.620Z,8.20
2018-10-09T05:30:17.397Z,8.20
2018-10-09T05:32:21.256Z,8.20
2018-10-09T05:34:28.224Z,8.20
2018-10-09T05:36:31.985Z,8.20
2018-10-09T05:38:35.768Z,8.20
2018-10-09T05:40:39.556Z,8.20
2018-10-09T05:42:43.484Z,8.20
2018-10-09T05:44:47.313Z,8.20
2018-10-09T05:46:51.151Z,8.20
2018-10-09T05:48:55.070Z,8.20
2018-10-09T05:50:58.919Z,8.20
2018-10-09T05:53:02.612Z,8.30
2018-10-09T05:55:07.248Z,8.30
2018-10-09T05:57:11.260Z,8.30
2018-10-09T05:59:15.859Z,8.20
2018-10-09T06:01:19.587Z,8.20
2018-10-09T06:03:24.298Z,8.20
2018-10-09T06:05:30.585Z,8.20
2018-10-09T06:07:34.838Z,8.20
2018-10-09T06:09:38.627Z,8.20
2018-10-09T06:11:43.247Z,8.20
2018-10-09T06:13:47.008Z,8.20
2018-10-09T06:15:50.940Z,8.20
2018-10-09T06:17:54.772Z,8.20
2018-10-09T06:19:59.000Z,8.20
2018-10-09T06:22:02.786Z,8.20
2018-10-09T06:24:06.684Z,8.20
2018-10-09T06:26:10.532Z,8.20
2018-10-09T06:28:14.257Z,8.30
2018-10-09T06:30:17.986Z,8.30
2018-10-09T06:32:21.693Z,8.30
2018-10-09T06:34:25.466Z,8.40
2018-10-09T06:36:29.235Z,8.40
2018-10-09T06:38:32.957Z,8.40
2018-10-09T06:40:37.250Z,8.50
2018-10-09T06:42:43.268Z,8.50
2018-10-09T06:44:46.955Z,8.50
2018-10-09T06:46:50.733Z,8.50
2018-10-09T06:48:54.578Z,8.60
2018-10-09T06:50:59.601Z,8.60
2018-10-09T06:53:03.323Z,8.70
2018-10-09T06:55:07.049Z,8.70
2018-10-09T06:57:11.168Z,8.80
2018-10-09T06:59:14.988Z,8.80
2018-10-09T07:01:18.734Z,8.80
2018-10-09T07:03:22.503Z,8.80
2018-10-09T07:05:26.281Z,8.90
2018-10-09T07:07:30.318Z,8.90
2018-10-09T07:09:34.105Z,9.00
2018-10-09T07:11:39.749Z,9.10
2018-10-09T07:13:43.535Z,9.10
2018-10-09T07:15:47.748Z,9.20
2018-10-09T07:17:51.531Z,9.40
2018-10-09T07:19:55.297Z,9.50
2018-10-09T07:21:58.974Z,9.70
2018-10-09T07:24:02.653Z,10.00
2018-10-09T07:26:06.408Z,10.20
2018-10-09T07:28:10.144Z,10.50
2018-10-09T07:30:13.844Z,10.80
2018-10-09T07:32:17.575Z,11.10
2018-10-09T07:34:21.321Z,11.40
2018-10-09T07:36:24.991Z,11.80
2018-10-09T07:38:28.654Z,12.10
2018-10-09T07:40:32.303Z,12.40
2018-10-09T07:42:35.996Z,12.70
2018-10-09T07:44:39.915Z,13.00
2018-10-09T07:46:44.406Z,13.30
2018-10-09T07:48:48.175Z,13.60
2018-10-09T07:50:51.929Z,13.80
2018-10-09T07:52:55.717Z,14.00
2018-10-09T07:54:59.527Z,14.30
2018-10-09T07:57:03.251Z,14.70
2018-10-09T07:59:06.994Z,14.90
2018-10-09T08:01:10.781Z,15.10
2018-10-09T08:03:14.558Z,15.30
2018-10-09T08:05:18.290Z,15.60
2018-10-09T08:07:22.031Z,15.80
2018-10-09T08:09:25.724Z,16.10
2018-10-09T08:11:29.443Z,16.40
2018-10-09T08:13:33.183Z,16.40
2018-10-09T08:15:36.894Z,16.40
2018-10-09T08:17:40.588Z,16.40
2018-10-09T08:19:44.261Z,16.60
2018-10-09T08:21:47.909Z,16.90
2018-10-09T08:23:51.666Z,17.10
2018-10-09T08:25:55.326Z,17.30
2018-10-09T08:27:59.106Z,17.60
2018-10-09T08:30:02.776Z,17.90
2018-10-09T08:32:06.513Z,18.30
2018-10-09T08:34:10.459Z,18.60
2018-10-09T08:36:14.222Z,19.00
2018-10-09T08:38:18.352Z,19.20
2018-10-09T08:40:22.329Z,19.30
2018-10-09T08:42:25.983Z,19.50
2018-10-09T08:44:29.661Z,19.70
2018-10-09T08:46:33.344Z,19.80
2018-10-09T08:48:37.156Z,19.90
2018-10-09T08:50:40.883Z,19.90
2018-10-09T08:52:44.664Z,20.10
2018-10-09T08:54:48.407Z,20.30
2018-10-09T08:56:52.107Z,20.30
2018-10-09T08:58:55.854Z,20.20
2018-10-09T09:00:59.576Z,20.00
2018-10-09T09:03:03.343Z,20.00
2018-10-09T09:05:08.474Z,20.00
2018-10-09T09:07:12.283Z,20.20
2018-10-09T09:09:16.097Z,20.30
2018-10-09T09:11:19.889Z,20.30
2018-10-09T09:13:23.614Z,20.40
2018-10-09T09:15:27.479Z,20.50
2018-10-09T09:17:31.282Z,20.60
2018-10-09T09:19:35.202Z,20.60
2018-10-09T09:21:39.993Z,20.80
2018-10-09T09:23:44.089Z,21.20
2018-10-09T09:25:48.065Z,21.30
2018-10-09T09:27:51.888Z,21.60
2018-10-09T09:29:55.665Z,21.80
2018-10-09T09:31:59.488Z,22.10
2018-10-09T09:34:03.236Z,22.40
2018-10-09T09:36:07.088Z,22.70
2018-10-09T09:38:10.913Z,22.90
2018-10-09T09:40:14.723Z,22.90
2018-10-09T09:42:18.501Z,22.90
2018-10-09T09:44:22.431Z,22.90
2018-10-09T09:46:27.359Z,23.10
2018-10-09T09:48:31.099Z,23.40
2018-10-09T09:50:34.880Z,23.80
2018-10-09T09:52:38.612Z,24.00
2018-10-09T09:54:42.417Z,24.00
2018-10-09T09:56:46.172Z,23.70
2018-10-09T09:58:50.805Z,23.30
2018-10-09T10:00:58.441Z,23.10
2018-10-09T10:03:02.159Z,23.00
2018-10-09T10:05:12.771Z,23.00
2018-10-09T10:07:16.507Z,23.10
2018-10-09T10:09:20.373Z,23.10
2018-10-09T10:11:24.078Z,22.90
2018-10-09T10:13:27.958Z,22.90
2018-10-09T10:15:31.760Z,23.00
2018-10-09T10:17:35.443Z,23.10
2018-10-09T10:19:39.137Z,23.10
2018-10-09T10:21:42.880Z,23.30
2018-10-09T10:23:46.829Z,23.50
2018-10-09T10:25:50.850Z,23.60
2018-10-09T10:27:54.854Z,23.50
2018-10-09T10:29:58.772Z,23.50
2018-10-09T10:32:02.800Z,23.30
2018-10-09T10:34:07.014Z,23.10
2018-10-09T10:36:11.098Z,23.20
2018-10-09T10:38:15.033Z,23.30
2018-10-09T10:40:19.179Z,23.50
2018-10-09T10:42:23.120Z,23.60
2018-10-09T10:44:27.095Z,23.70
2018-10-09T10:46:36.424Z,23.70
2018-10-09T10:48:55.452Z,23.70
2018-10-09T10:51:01.443Z,23.80
2018-10-09T10:53:05.452Z,23.70
2018-10-09T10:55:09.508Z,23.50
2018-10-09T10:57:13.450Z,23.50
2018-10-09T10:59:17.515Z,23.70
2018-10-09T11:01:22.174Z,24.10
2018-10-09T11:03:26.187Z,24.20
2018-10-09T11:05:30.230Z,24.20
2018-10-09T11:07:34.124Z,24.10
2018-10-09T11:09:39.291Z,23.80
2018-10-09T11:11:43.400Z,23.50
2018-10-09T11:13:47.601Z,23.60
2018-10-09T11:15:51.509Z,23.60
2018-10-09T11:17:55.503Z,23.50
2018-10-09T11:19:59.376Z,23.50
2018-10-09T11:22:03.405Z,23.50
2018-10-09T11:24:07.504Z,23.50
2018-10-09T11:26:11.503Z,23.50
2018-10-09T11:28:15.464Z,23.40
2018-10-09T11:30:20.341Z,23.30
2018-10-09T11:32:24.457Z,23.10
2018-10-09T11:34:28.533Z,23.10
2018-10-09T11:36:32.769Z,23.10
2018-10-09T11:38:36.780Z,23.10
2018-10-09T11:40:41.045Z,23.20
2018-10-09T11:42:45.070Z,23.30
2018-10-09T11:44:49.062Z,23.40
2018-10-09T11:46:53.004Z,23.20
2018-10-09T11:48:57.124Z,23.00
2018-10-09T11:51:01.247Z,23.10
2018-10-09T11:53:05.203Z,23.30
2018-10-09T11:55:09.336Z,23.30
2018-10-09T11:57:13.249Z,23.20
2018-10-09T11:59:17.226Z,23.30
2018-10-09T12:01:21.505Z,23.30
2018-10-09T12:03:25.412Z,23.40
2018-10-09T12:05:29.385Z,23.60
2018-10-09T12:07:33.506Z,23.70
2018-10-09T12:09:37.750Z,23.90
2018-10-09T12:11:42.376Z,23.90
2018-10-09T12:13:46.340Z,23.90
2018-10-09T12:15:50.365Z,23.70
2018-10-09T12:17:54.346Z,23.40
2018-10-09T12:19:58.807Z,23.00
2018-10-09T12:22:02.920Z,22.80
2018-10-09T12:24:06.933Z,22.70
2018-10-09T12:26:11.209Z,22.70
2018-10-09T12:28:15.352Z,22.80
2018-10-09T12:30:20.399Z,22.90
2018-10-09T12:32:25.184Z,23.10
2018-10-09T12:34:29.259Z,23.20
2018-10-09T12:36:33.265Z,23.10
2018-10-09T12:38:38.249Z,23.30
2018-10-09T12:40:42.323Z,23.40
2018-10-09T12:42:46.443Z,23.50
2018-10-09T12:44:50.334Z,23.50
2018-10-09T12:46:55.405Z,23.60
2018-10-09T12:49:01.341Z,23.80
2018-10-09T12:51:05.872Z,23.80
2018-10-09T12:53:09.893Z,23.70
2018-10-09T12:55:13.790Z,23.60
2018-10-09T12:57:18.185Z,23.60
2018-10-09T12:59:22.408Z,23.80
2018-10-09T13:01:26.570Z,23.70
2018-10-09T13:03:30.862Z,23.70
2018-10-09T13:05:35.182Z,23.70
2018-10-09T13:07:39.127Z,23.50
2018-10-09T13:09:43.171Z,23.30
2018-10-09T13:11:47.201Z,23.20
2018-10-09T13:13:51.210Z,23.10
2018-10-09T13:15:55.189Z,23.00
2018-10-09T13:17:59.271Z,23.00
2018-10-09T13:20:03.439Z,23.00
2018-10-09T13:22:07.613Z,22.90
2018-10-09T13:24:11.791Z,23.00
2018-10-09T13:26:15.965Z,22.90
2018-10-09T13:28:20.085Z,22.80
2018-10-09T13:30:24.184Z,22.80
2018-10-09T13:32:28.276Z,22.70
2018-10-09T13:34:32.638Z,22.70
2018-10-09T13:36:36.716Z,22.70
2018-10-09T13:38:40.368Z,22.70
2018-10-09T13:40:44.093Z,22.60
2018-10-09T13:42:47.759Z,22.50
2018-10-09T13:44:52.229Z,22.50
2018-10-09T13:46:56.326Z,22.40
2018-10-09T13:48:59.975Z,22.30
2018-10-09T13:51:03.688Z,22.30
2018-10-09T13:53:07.395Z,22.30
2018-10-09T13:55:11.166Z,22.20
2018-10-09T13:57:14.887Z,22.20
2018-10-09T13:59:18.559Z,22.20
2018-10-09T14:01:22.241Z,22.20
2018-10-09T14:03:25.885Z,22.30
2018-10-09T14:05:29.925Z,22.30
2018-10-09T14:07:33.574Z,22.40
2018-10-09T14:09:37.292Z,22.40
2018-10-09T14:11:41.066Z,22.40
2018-10-09T14:13:44.702Z,22.40
2018-10-09T14:15:48.405Z,22.20
2018-10-09T14:17:52.902Z,22.20
2018-10-09T14:19:57.244Z,22.10
2018-10-09T14:22:01.044Z,21.90
2018-10-09T14:24:04.812Z,21.90
2018-10-09T14:26:08.547Z,21.90
2018-10-09T14:28:12.218Z,21.70
2018-10-09T14:30:15.931Z,21.70
2018-10-09T14:32:19.575Z,21.60
2018-10-09T14:34:23.637Z,21.50
2018-10-09T14:36:27.354Z,21.50
2018-10-09T14:38:31.020Z,21.40
2018-10-09T14:40:34.709Z,21.40
2018-10-09T14:42:38.912Z,21.30
2018-10-09T14:44:43.019Z,21.10
2018-10-09T14:46:46.963Z,20.90
2018-10-09T14:48:57.077Z,20.80
2018-10-09T14:51:01.106Z,20.70
2018-10-09T14:53:05.086Z,20.60
2018-10-09T14:55:08.927Z,20.70
2018-10-09T14:57:13.642Z,20.80
2018-10-09T14:59:17.367Z,20.80
2018-10-09T15:01:21.093Z,20.80
2018-10-09T15:03:24.941Z,20.90
2018-10-09T15:05:29.014Z,20.80
2018-10-09T15:07:32.841Z,20.90
2018-10-09T15:09:36.867Z,20.90
2018-10-09T15:11:42.701Z,20.90
2018-10-09T15:13:46.495Z,20.80
2018-10-09T15:15:50.245Z,20.70
2018-10-09T15:17:55.736Z,20.70
2018-10-09T15:20:00.059Z,20.60
2018-10-09T15:22:04.464Z,20.40
2018-10-09T15:24:09.694Z,20.30
2018-10-09T15:26:13.386Z,20.30
2018-10-09T15:28:17.035Z,20.20
2018-10-09T15:30:20.713Z,20.10
2018-10-09T15:32:24.423Z,20.00
2018-10-09T15:34:28.120Z,20.00
2018-10-09T15:36:31.873Z,19.90
2018-10-09T15:38:35.560Z,19.90
2018-10-09T15:40:39.440Z,19.90
2018-10-09T15:42:43.119Z,19.80
2018-10-09T15:44:46.759Z,19.80
2018-10-09T15:46:50.433Z,19.80
2018-10-09T15:48:54.101Z,19.70
2018-10-09T15:50:57.905Z,19.70
2018-10-09T15:53:01.599Z,19.70
2018-10-09T15:55:05.344Z,19.60
2018-10-09T15:57:09.294Z,19.50
2018-10-09T15:59:12.949Z,19.50
2018-10-09T16:01:16.603Z,19.40
2018-10-09T16:03:20.393Z,19.40
2018-10-09T16:05:24.035Z,19.30
2018-10-09T16:07:27.703Z,19.20
2018-10-09T16:09:31.327Z,19.20
2018-10-09T16:11:34.963Z,19.20
2018-10-09T16:13:38.620Z,19.10
2018-10-09T16:15:42.269Z,19.00
2018-10-09T16:17:45.976Z,19.00
2018-10-09T16:19:49.616Z,18.90
2018-10-09T16:21:53.247Z,18.90
2018-10-09T16:23:56.992Z,18.90
2018-10-09T16:26:00.626Z,18.80
2018-10-09T16:28:04.300Z,18.70
2018-10-09T16:30:08.147Z,18.60
2018-10-09T16:32:11.813Z,18.60
2018-10-09T16:34:15.521Z,18.60
2018-10-09T16:36:19.298Z,18.50
2018-10-09T16:38:23.411Z,18.40
2018-10-09T16:40:27.213Z,18.30
2018-10-09T16:42:34.152Z,18.20
2018-10-09T16:44:38.474Z,18.20
2018-10-09T16:46:42.741Z,18.10
2018-10-09T16:48:46.544Z,18.10
2018-10-09T16:50:51.070Z,18.00
2018-10-09T16:52:55.545Z,17.90
2018-10-09T16:55:00.022Z,17.90
2018-10-09T16:57:03.959Z,17.80
2018-10-09T16:59:10.252Z,17.80
2018-10-09T17:01:19.232Z,17.70
2018-10-09T17:03:25.322Z,17.70
2018-10-09T17:05:32.017Z,17.60
2018-10-09T17:07:36.219Z,17.60
2018-10-09T17:09:40.365Z,17.50
2018-10-09T17:11:45.040Z,17.50
2018-10-09T17:13:50.522Z,17.40
2018-10-09T17:15:54.843Z,17.40
2018-10-09T17:18:00.142Z,17.30
2018-10-09T17:20:04.727Z,17.20
2018-10-09T17:22:09.054Z,17.20
2018-10-09T17:24:13.249Z,17.20
2018-10-09T17:26:19.122Z,17.10
2018-10-09T17:28:23.641Z,17.00
2018-10-09T17:30:30.023Z,17.00
2018-10-09T17:32:33.938Z,16.90
2018-10-09T17:34:38.405Z,16.90
2018-10-09T17:36:43.994Z,16.80
2018-10-09T17:38:48.272Z,16.70
2018-10-09T17:40:52.789Z,16.70
2018-10-09T17:42:57.190Z,16.60
2018-10-09T17:45:01.611Z,16.60
2018-10-09T17:47:08.349Z,16.50
2018-10-09T17:49:13.717Z,16.40
2018-10-09T17:51:17.988Z,16.40
2018-10-09T17:53:23.687Z,16.30
2018-10-09T17:55:29.362Z,16.20
2018-10-09T17:57:34.647Z,16.20
2018-10-09T17:59:39.173Z,16.20
2018-10-09T18:01:42.999Z,16.10
2018-10-09T18:03:48.349Z,16.10
2018-10-09T18:05:52.762Z,16.10
2018-10-09T18:07:59.619Z,16.10
2018-10-09T18:10:07.151Z,16.00
2018-10-09T18:12:11.314Z,16.00
2018-10-09T18:14:16.596Z,16.00
2018-10-09T18:16:22.432Z,15.90
2018-10-09T18:18:29.077Z,15.90
2018-10-09T18:20:38.317Z,15.80
2018-10-09T18:22:45.980Z,15.80
2018-10-09T18:24:53.377Z,15.70
2018-10-09T18:26:59.912Z,15.70
2018-10-09T18:29:04.285Z,15.60
2018-10-09T18:31:11.967Z,15.60
2018-10-09T18:33:19.758Z,15.60
2018-10-09T18:35:25.928Z,15.50
2018-10-09T18:37:34.403Z,15.50
2018-10-09T18:39:41.731Z,15.40
2018-10-09T18:41:49.150Z,15.40
2018-10-09T18:43:55.666Z,15.30
2018-10-09T18:46:02.098Z,15.30
2018-10-09T18:48:07.420Z,15.20
2018-10-09T18:50:14.349Z,15.20
2018-10-09T18:52:19.746Z,15.20
2018-10-09T18:54:25.435Z,15.10
2018-10-09T18:56:30.503Z,15.10
2018-10-09T18:58:36.316Z,15.00
2018-10-09T19:00:40.652Z,15.00
2018-10-09T19:02:45.134Z,15.00
2018-10-09T19:04:52.138Z,14.90
2018-10-09T19:07:03.275Z,14.90
2018-10-09T19:09:12.570Z,14.80
2018-10-09T19:11:18.549Z,14.80
2018-10-09T19:13:23.818Z,14.80
2018-10-09T19:15:29.190Z,14.70
2018-10-09T19:17:32.877Z,14.60
2018-10-09T19:19:38.343Z,14.60
2018-10-09T19:21:42.080Z,14.60
2018-10-09T19:23:47.673Z,14.50
2018-10-09T19:25:53.583Z,14.50
2018-10-09T19:27:59.807Z,14.40
2018-10-09T19:30:07.456Z,14.40
2018-10-09T19:32:13.486Z,14.40
2018-10-09T19:34:17.952Z,14.30
2018-10-09T19:36:23.615Z,14.30
2018-10-09T19:38:28.114Z,14.30
2018-10-09T19:40:35.237Z,14.30
2018-10-09T19:42:40.605Z,14.20
2018-10-09T19:44:44.716Z,14.10
2018-10-09T19:46:48.462Z,14.10
2018-10-09T19:48:55.750Z,14.10
2018-10-09T19:51:02.741Z,14.10
2018-10-09T19:53:07.413Z,14.10
2018-10-09T19:55:14.569Z,14.10
2018-10-09T19:57:19.619Z,14.00
2018-10-09T19:59:23.486Z,13.90
2018-10-09T20:01:27.284Z,13.90
2018-10-09T20:03:31.063Z,13.90
2018-10-09T20:05:35.291Z,13.80
2018-10-09T20:07:39.057Z,13.80
2018-10-09T20:09:42.786Z,13.80
2018-10-09T20:11:46.521Z,13.70
2018-10-09T20:13:50.397Z,13.70
2018-10-09T20:15:55.730Z,13.70
2018-10-09T20:18:00.833Z,13.60
2018-10-09T20:20:06.622Z,13.60
2018-10-09T20:22:11.935Z,13.60
2018-10-09T20:24:15.966Z,13.50
2018-10-09T20:26:20.533Z,13.50
2018-10-09T20:28:24.317Z,13.50
2018-10-09T20:30:28.422Z,13.50
2018-10-09T20:32:32.544Z,13.40
2018-10-09T20:34:37.212Z,13.40
2018-10-09T20:36:42.651Z,13.40
2018-10-09T20:38:47.213Z,13.40
2018-10-09T20:40:52.387Z,13.30
2018-10-09T20:42:59.027Z,13.30
2018-10-09T20:45:03.011Z,13.30
2018-10-09T20:47:09.611Z,13.20
2018-10-09T20:49:13.316Z,13.20
2018-10-09T20:51:17.391Z,13.20
2018-10-09T20:53:21.827Z,13.10
2018-10-09T20:55:26.480Z,13.10
2018-10-09T20:57:32.410Z,13.10
2018-10-09T20:59:37.872Z,13.10
2018-10-09T21:01:41.808Z,13.00
2018-10-09T21:03:46.400Z,12.90
2018-10-09T21:05:52.784Z,12.90
2018-10-09T21:08:00.363Z,12.90
2018-10-09T21:10:06.661Z,12.90
2018-10-09T21:12:10.643Z,12.90
2018-10-09T21:14:15.075Z,12.90
2018-10-09T21:16:20.835Z,12.90
2018-10-09T21:18:25.044Z,12.80
2018-10-09T21:20:31.719Z,12.80
2018-10-09T21:22:36.974Z,12.80
2018-10-09T21:24:42.076Z,12.80
2018-10-09T21:26:46.631Z,12.70
2018-10-09T21:28:51.041Z,12.70
2018-10-09T21:30:55.871Z,12.70
2018-10-09T21:33:00.885Z,12.60
2018-10-09T21:35:05.174Z,12.60
2018-10-09T21:37:10.372Z,12.60
2018-10-09T21:39:15.032Z,12.60
2018-10-09T21:41:21.841Z,12.50
2018-10-09T21:43:29.495Z,12.50
2018-10-09T21:45:36.028Z,12.50
2018-10-09T21:47:46.975Z,12.40
2018-10-09T21:49:50.795Z,12.40
2018-10-09T21:51:54.441Z,12.40
2018-10-09T21:53:58.207Z,12.30
2018-10-09T21:56:01.892Z,12.30
2018-10-09T21:58:05.690Z,12.20
2018-10-09T22:00:10.357Z,12.20
2018-10-09T22:02:14.007Z,12.20
2018-10-09T22:04:17.773Z,12.10
2018-10-09T22:06:21.449Z,12.00
2018-10-09T22:08:25.554Z,12.00
2018-10-09T22:10:29.231Z,12.00
2018-10-09T22:12:32.867Z,12.00
2018-10-09T22:14:36.654Z,11.90
2018-10-09T22:16:40.379Z,11.90
2018-10-09T22:18:44.063Z,11.80
2018-10-09T22:20:47.695Z,11.80
2018-10-09T22:22:51.394Z,11.80
2018-10-09T22:24:55.122Z,11.80
2018-10-09T22:26:58.791Z,11.70
2018-10-09T22:29:02.506Z,11.70
2018-10-09T22:31:06.178Z,11.70
2018-10-09T22:33:09.872Z,11.70
2018-10-09T22:35:14.006Z,11.70
2018-10-09T22:37:18.267Z,11.70
2018-10-09T22:39:21.949Z,11.60
2018-10-09T22:41:25.590Z,11.60
2018-10-09T22:43:29.238Z,11.60
2018-10-09T22:45:32.937Z,11.60
2018-10-09T22:47:36.613Z,11.60
2018-10-09T22:49:40.297Z,11.50
2018-10-09T22:51:43.987Z,11.50
2018-10-09T22:53:47.661Z,11.50
2018-10-09T22:55:51.383Z,11.50
2018-10-09T22:57:55.045Z,11.40
2018-10-09T22:59:58.773Z,11.40
2018-10-09T23:02:02.469Z,11.40
2018-10-09T23:04:06.154Z,11.30
2018-10-09T23:06:09.903Z,11.30
2018-10-09T23:08:13.541Z,11.30
2018-10-09T23:10:17.234Z,11.30
2018-10-09T23:12:20.881Z,11.30
2018-10-09T23:14:24.531Z,11.20
2018-10-09T23:16:28.243Z,11.20
2018-10-09T23:18:31.961Z,11.20
2018-10-09T23:20:35.702Z,11.20
2018-10-09T23:22:39.460Z,11.20
2018-10-09T23:24:43.123Z,11.20
2018-10-09T23:26:46.795Z,11.20
2018-10-09T23:28:50.459Z,11.20
2018-10-09T23:30:54.132Z,11.20
2018-10-09T23:32:57.807Z,11.10
2018-10-09T23:35:01.501Z,11.20
2018-10-09T23:37:05.241Z,11.10
2018-10-09T23:39:09.377Z,11.10
2018-10-09T23:41:13.138Z,11.00
2018-10-09T23:43:16.877Z,11.00
2018-10-09T23:45:20.502Z,11.00
2018-10-09T23:47:24.242Z,11.00
2018-10-09T23:49:28.727Z,10.90
2018-10-09T23:51:32.477Z,10.90
2018-10-09T23:53:36.135Z,10.90
2018-10-09T23:55:39.846Z,10.90
2018-10-09T23:57:43.545Z,10.80
2018-10-09T23:59:47.221Z,10.80
